Time;durP1;ratioP1;P1;durP2;ratioP2;P2;SDS_P1;SDS_P2;PMS_P1;PMS_P2;Temp;Humidity;BMP_temperature;BMP_pressure;BME280_temperature;BME280_humidity;BME280_pressure;Samples;Min_cycle;Max_cycle;Signal;HPM_P1;HPM_P2
2022/05/31 00:00:32;;;;;;;2.03;1.93;;;15.00;37.50;;;;;;20679;6865;118084;-84
2022/05/31 00:02:58;;;;;;;2.00;1.90;;;14.90;37.80;;;;;;20689;6865;119901;-85
2022/05/31 00:05:25;;;;;;;1.80;1.63;;;14.40;38.60;;;;;;20694;6865;117856;-87
2022/05/31 00:07:49;;;;;;;2.00;1.90;;;14.40;38.60;;;;;;20695;6865;117925;-85
2022/05/31 00:10:15;;;;;;;2.40;2.20;;;14.20;39.00;;;;;;20462;6865;308802;-85
2022/05/31 00:12:41;;;;;;;2.43;2.30;;;14.40;39.20;;;;;;20482;6865;279250;-85
2022/05/31 00:15:08;;;;;;;2.53;2.25;;;15.00;38.00;;;;;;20485;6863;309321;-86
2022/05/31 00:17:34;;;;;;;2.53;2.30;;;15.00;38.00;;;;;;20489;6864;338047;-85
2022/05/31 00:19:59;;;;;;;2.37;2.27;;;15.20;37.40;;;;;;20714;6865;119350;-85
2022/05/31 00:22:25;;;;;;;2.53;2.37;;;15.00;37.80;;;;;;20463;6865;309769;-85
2022/05/31 00:24:51;;;;;;;2.40;2.30;;;15.00;37.30;;;;;;20474;6865;314551;-85
2022/05/31 00:27:18;;;;;;;2.37;2.20;;;15.20;36.70;;;;;;20486;6865;337569;-83
2022/05/31 00:29:44;;;;;;;2.60;2.50;;;15.40;36.70;;;;;;20731;6865;117154;-85
2022/05/31 00:32:09;;;;;;;2.50;2.30;;;15.10;37.00;;;;;;20696;6865;117468;-85
2022/05/31 00:34:35;;;;;;;2.20;2.10;;;14.70;37.60;;;;;;20677;6865;117693;-84
2022/05/31 00:37:00;;;;;;;2.00;1.90;;;14.40;38.10;;;;;;20689;6865;117708;-85
2022/05/31 00:39:27;;;;;;;2.70;2.50;;;14.20;38.70;;;;;;20477;6865;312488;-85
2022/05/31 00:41:55;;;;;;;2.57;2.40;;;14.40;39.00;;;;;;20696;6865;117515;-84
2022/05/31 00:44:26;;;;;;;2.70;2.50;;;14.40;38.40;;;;;;20456;6865;309303;-84
2022/05/31 00:46:46;;;;;;;3.17;2.80;;;14.60;38.10;;;;;;20680;6865;117497;-84
2022/05/31 00:49:12;;;;;;;2.20;2.10;;;14.50;38.00;;;;;;20472;6865;308775;-85
2022/05/31 00:51:37;;;;;;;2.72;2.55;;;14.60;38.10;;;;;;20468;6865;281634;-85
2022/05/31 00:54:03;;;;;;;3.70;2.63;;;14.90;37.50;;;;;;20692;6865;117827;-84
2022/05/31 00:56:28;;;;;;;2.37;2.27;;;14.70;37.60;;;;;;20661;6865;117433;-85
2022/05/31 00:59:01;;;;;;;2.63;2.50;;;14.40;38.10;;;;;;20484;6865;281674;-85
2022/05/31 01:01:26;;;;;;;2.62;2.42;;;14.50;37.90;;;;;;20441;6865;308998;-85
2022/05/31 01:03:55;;;;;;;2.47;2.30;;;14.90;37.30;;;;;;20478;6865;281637;-84
2022/05/31 01:06:21;;;;;;;2.40;2.30;;;14.90;37.30;;;;;;20461;6865;309688;-85
2022/05/31 01:08:49;;;;;;;2.40;2.30;;;14.90;37.60;;;;;;20693;6865;117638;-85
2022/05/31 01:11:14;;;;;;;2.50;2.30;;;14.90;37.60;;;;;;20484;6865;280115;-85
2022/05/31 01:13:40;;;;;;;2.22;2.12;;;14.90;37.70;;;;;;20683;6865;117688;-85
2022/05/31 01:16:06;;;;;;;2.57;2.37;;;14.70;38.10;;;;;;20689;6865;118419;-85
2022/05/31 01:18:32;;;;;;;2.53;2.33;;;14.40;38.50;;;;;;20672;6865;117698;-84
2022/05/31 01:20:59;;;;;;;2.33;2.20;;;14.20;38.90;;;;;;20693;6865;117531;-85
2022/05/31 01:23:23;;;;;;;2.58;2.47;;;13.90;39.10;;;;;;20701;6865;117383;-84
2022/05/31 01:26:02;;;;;;;2.47;2.37;;;13.80;39.50;;;;;;20487;6865;279141;-84
2022/05/31 01:28:34;;;;;;;2.00;1.90;;;14.00;38.90;;;;;;20617;6863;118169;-85
2022/05/31 01:30:59;;;;;;;2.90;2.60;;;14.10;39.00;;;;;;20468;6865;279617;-85
2022/05/31 01:33:41;;;;;;;2.87;2.67;;;14.30;38.30;;;;;;20682;6865;117476;-84
2022/05/31 01:36:07;;;;;;;2.10;2.00;;;14.20;38.40;;;;;;20677;6865;117226;-84
2022/05/31 01:38:33;;;;;;;2.90;2.67;;;13.90;38.90;;;;;;20670;6865;119126;-85
2022/05/31 01:41:11;;;;;;;2.60;2.40;;;13.60;39.10;;;;;;20462;6865;281580;-85
2022/05/31 01:43:37;;;;;;;3.93;2.43;;;13.80;39.20;;;;;;20678;6865;117426;-84
2022/05/31 01:46:05;;;;;;;2.40;2.20;;;13.80;39.20;;;;;;20470;6865;281078;-86
2022/05/31 01:48:31;;;;;;;2.30;2.20;;;14.00;39.20;;;;;;20458;6865;281602;-85
2022/05/31 01:50:56;;;;;;;3.00;2.40;;;14.40;38.40;;;;;;20468;6865;308860;-84
2022/05/31 01:53:22;;;;;;;2.42;2.25;;;14.70;37.70;;;;;;20485;6865;308846;-85
2022/05/31 01:55:48;;;;;;;2.43;2.23;;;14.90;38.00;;;;;;20702;6865;119907;-84
2022/05/31 01:58:13;;;;;;;2.60;2.40;;;14.70;38.50;;;;;;20695;6865;117660;-85
2022/05/31 02:00:39;;;;;;;2.40;2.20;;;14.30;39.10;;;;;;20226;6865;287405;-85
2022/05/31 02:03:04;;;;;;;2.75;2.55;;;14.30;39.30;;;;;;20492;6865;279794;-84
2022/05/31 02:05:30;;;;;;;2.27;2.17;;;14.60;39.20;;;;;;20698;6865;117500;-84
2022/05/31 02:07:55;;;;;;;2.20;2.10;;;14.40;39.20;;;;;;20696;6865;117861;-85
2022/05/31 02:10:22;;;;;;;2.60;2.40;;;14.20;39.00;;;;;;20427;6865;310777;-84
2022/05/31 02:12:47;;;;;;;2.60;2.40;;;14.20;39.00;;;;;;20477;6865;340772;-85
2022/05/31 02:15:14;;;;;;;2.50;2.30;;;14.60;39.30;;;;;;20478;6865;338322;-84
2022/05/31 02:17:39;;;;;;;2.37;2.17;;;14.80;39.30;;;;;;20695;6865;118095;-85
2022/05/31 02:20:06;;;;;;;2.80;2.60;;;14.60;39.00;;;;;;20492;6865;279587;-85
2022/05/31 02:22:31;;;;;;;2.67;2.40;;;14.60;39.00;;;;;;20677;6865;120295;-85
2022/05/31 02:24:57;;;;;;;2.40;2.30;;;14.30;39.10;;;;;;20707;6865;118450;-83
2022/05/31 02:27:23;;;;;;;2.95;2.75;;;13.90;39.60;;;;;;20695;6865;117668;-85
2022/05/31 02:29:49;;;;;;;2.50;2.27;;;13.40;41.30;;;;;;20698;6865;118307;-87
2022/05/31 02:32:14;;;;;;;2.63;2.53;;;13.40;40.70;;;;;;20463;6865;278760;-85
2022/05/31 02:34:44;;;;;;;2.67;2.47;;;13.50;41.20;;;;;;20692;6865;117768;-84
2022/05/31 02:37:10;;;;;;;2.47;2.37;;;13.50;41.20;;;;;;20683;6865;117384;-85
2022/05/31 02:39:35;;;;;;;2.80;2.60;;;13.30;41.40;;;;;;20471;6863;308781;-85
2022/05/31 02:42:01;;;;;;;2.40;2.30;;;13.40;41.60;;;;;;20690;6865;117474;-85
2022/05/31 02:44:26;;;;;;;2.53;2.42;;;13.30;41.40;;;;;;20674;6865;117558;-85
2022/05/31 02:46:52;;;;;;;2.50;2.40;;;13.10;41.70;;;;;;20681;6865;116580;-84
2022/05/31 02:49:18;;;;;;;2.87;2.67;;;13.00;41.70;;;;;;20481;6865;321056;-84
2022/05/31 02:51:44;;;;;;;2.92;2.72;;;13.00;41.70;;;;;;20478;6865;338862;-84
2022/05/31 02:54:09;;;;;;;3.67;2.40;;;13.30;40.90;;;;;;20690;6865;117285;-85
2022/05/31 02:56:35;;;;;;;2.80;2.60;;;13.30;41.10;;;;;;20665;6865;118013;-85
2022/05/31 02:59:01;;;;;;;2.78;2.58;;;13.00;41.70;;;;;;20483;6865;310089;-84
2022/05/31 03:01:27;;;;;;;2.87;2.57;;;13.40;41.50;;;;;;20481;6865;309856;-84
2022/05/31 03:03:52;;;;;;;3.03;2.47;;;13.30;40.70;;;;;;20686;6865;117501;-85
2022/05/31 03:06:19;;;;;;;2.83;2.53;;;13.00;41.20;;;;;;20678;6865;118251;-84
2022/05/31 03:08:44;;;;;;;2.37;2.23;;;13.00;41.20;;;;;;20691;6865;117883;-85
2022/05/31 03:11:11;;;;;;;2.55;2.35;;;13.00;41.00;;;;;;20463;6865;309129;-85
2022/05/31 03:13:37;;;;;;;2.20;2.10;;;13.00;41.00;;;;;;20658;6865;116477;-84
2022/05/31 03:16:03;;;;;;;2.40;2.20;;;12.90;40.90;;;;;;20678;6865;119370;-85
2022/05/31 03:18:32;;;;;;;1.87;1.77;;;12.70;41.10;;;;;;20672;6865;117380;-84
2022/05/31 03:20:58;;;;;;;2.60;2.40;;;12.40;41.60;;;;;;20670;6865;116913;-85
2022/05/31 03:23:27;;;;;;;2.97;2.00;;;12.30;41.60;;;;;;20682;6865;117282;-84
2022/05/31 03:25:52;;;;;;;2.23;2.13;;;12.20;41.70;;;;;;20664;6865;117295;-88
2022/05/31 03:28:17;;;;;;;2.20;2.10;;;12.10;42.00;;;;;;20459;6865;279680;-85
2022/05/31 03:30:43;;;;;;;2.53;2.33;;;12.30;41.70;;;;;;20678;6865;116904;-84
2022/05/31 03:33:09;;;;;;;2.30;2.20;;;12.60;42.00;;;;;;20475;6865;334901;-85
2022/05/31 03:35:35;;;;;;;2.45;2.30;;;12.60;42.00;;;;;;20474;6865;312049;-86
2022/05/31 03:38:00;;;;;;;2.17;2.07;;;13.00;41.30;;;;;;20686;6865;117483;-86
2022/05/31 03:43:11;;;;;;;2.57;2.37;;;13.00;41.80;;;;;;20481;6865;309797;-85
2022/05/31 03:45:41;;;;;;;2.40;2.30;;;13.30;40.80;;;;;;20692;6865;117857;-84
2022/05/31 03:48:09;;;;;;;2.33;2.20;;;13.10;40.90;;;;;;20684;6865;121875;-85
2022/05/31 03:50:34;;;;;;;2.27;2.17;;;12.70;41.40;;;;;;20674;6864;117382;-84
2022/05/31 03:53:00;;;;;;;2.77;2.30;;;12.20;42.20;;;;;;20695;6865;117795;-84
2022/05/31 03:55:26;;;;;;;2.30;2.20;;;12.20;41.90;;;;;;20478;6865;338469;-84
2022/05/31 03:57:51;;;;;;;2.50;2.40;;;12.40;41.60;;;;;;20693;6865;120109;-84
2022/05/31 04:00:17;;;;;;;2.28;2.17;;;12.40;41.80;;;;;;20673;6865;120183;-85
2022/05/31 04:02:42;;;;;;;2.40;2.20;;;12.30;42.10;;;;;;20686;6865;117977;-84
2022/05/31 04:05:08;;;;;;;2.47;2.37;;;12.20;42.40;;;;;;20701;6865;117239;-85
2022/05/31 04:07:35;;;;;;;2.00;1.90;;;12.00;42.50;;;;;;20687;6865;117478;-85
2022/05/31 04:09:59;;;;;;;2.70;2.20;;;11.90;42.60;;;;;;20483;6865;314526;-84
2022/05/31 04:12:25;;;;;;;1.97;1.87;;;12.20;42.10;;;;;;20683;6865;118285;-85
2022/05/31 04:14:51;;;;;;;2.33;2.13;;;12.30;42.10;;;;;;20479;6865;309315;-84
2022/05/31 04:17:16;;;;;;;2.08;1.98;;;12.50;42.00;;;;;;20476;6865;280835;-85
2022/05/31 04:19:41;;;;;;;2.40;2.30;;;12.90;41.70;;;;;;20479;6865;306770;-85
2022/05/31 04:22:07;;;;;;;2.57;2.37;;;13.30;42.50;;;;;;20478;6865;340979;-85
2022/05/31 04:24:33;;;;;;;2.70;2.50;;;13.50;42.80;;;;;;20678;6865;118012;-84
2022/05/31 04:26:58;;;;;;;2.10;2.00;;;13.40;42.80;;;;;;20693;6865;123186;-84
2022/05/31 04:29:24;;;;;;;2.70;2.50;;;13.00;43.20;;;;;;20483;6865;308646;-84
2022/05/31 04:31:49;;;;;;;2.40;2.30;;;13.20;43.20;;;;;;20479;6865;309433;-84
2022/05/31 04:34:16;;;;;;;2.30;2.20;;;13.40;42.50;;;;;;20676;6865;117959;-85
2022/05/31 04:36:41;;;;;;;2.67;2.57;;;13.40;42.90;;;;;;20676;6865;117606;-85
2022/05/31 04:39:08;;;;;;;2.42;2.33;;;13.20;42.80;;;;;;20693;6865;120280;-86
2022/05/31 04:41:32;;;;;;;2.43;2.20;;;13.00;43.20;;;;;;20685;6865;117373;-83
2022/05/31 04:43:58;;;;;;;2.80;2.60;;;12.70;43.50;;;;;;20459;6865;308601;-83
2022/05/31 04:46:25;;;;;;;2.45;2.35;;;12.90;43.60;;;;;;20669;6865;118277;-84
2022/05/31 04:48:50;;;;;;;2.50;2.40;;;12.90;43.40;;;;;;20467;6865;300731;-84
2022/05/31 04:51:16;;;;;;;3.12;2.40;;;13.10;43.60;;;;;;20680;6865;118326;-83
2022/05/31 04:53:43;;;;;;;2.90;2.70;;;13.10;43.40;;;;;;20480;6865;337941;-84
2022/05/31 04:56:08;;;;;;;2.93;2.73;;;13.30;43.20;;;;;;20472;6865;309284;-84
2022/05/31 04:58:35;;;;;;;2.87;2.70;;;13.60;42.50;;;;;;20431;6865;309294;-84
2022/05/31 05:01:02;;;;;;;2.77;2.60;;;14.20;41.70;;;;;;20462;6865;309285;-84
2022/05/31 05:03:27;;;;;;;2.60;2.42;;;14.20;41.70;;;;;;20486;6863;280027;-85
2022/05/31 05:05:54;;;;;;;2.63;2.53;;;14.50;41.20;;;;;;20480;6865;309249;-85
2022/05/31 05:08:20;;;;;;;2.90;2.70;;;14.70;40.90;;;;;;20451;6865;279724;-82
2022/05/31 05:10:45;;;;;;;2.90;2.70;;;14.90;40.50;;;;;;20480;6865;311471;-83
2022/05/31 05:13:11;;;;;;;2.60;2.40;;;15.10;40.20;;;;;;20689;6865;117223;-83
2022/05/31 05:15:40;;;;;;;2.67;2.47;;;14.90;40.60;;;;;;20693;6865;117705;-85
2022/05/31 05:18:05;;;;;;;2.70;2.50;;;14.70;41.40;;;;;;20475;6865;309343;-84
2022/05/31 05:20:31;;;;;;;2.53;2.42;;;14.80;42.10;;;;;;20459;6865;319103;-85
2022/05/31 05:22:56;;;;;;;2.63;2.53;;;15.10;41.60;;;;;;20683;6865;118344;-84
2022/05/31 05:25:22;;;;;;;3.33;3.10;;;15.00;41.60;;;;;;20699;6865;121101;-87
2022/05/31 05:27:48;;;;;;;2.47;2.37;;;14.70;41.90;;;;;;20693;6865;117753;-85
2022/05/31 05:33:00;;;;;;;2.80;2.60;;;14.30;42.40;;;;;;20699;6865;117967;-88
2022/05/31 05:35:27;;;;;;;2.70;2.50;;;14.10;42.70;;;;;;20691;6865;117387;-90
2022/05/31 05:37:52;;;;;;;2.90;2.40;;;14.00;43.00;;;;;;20691;6865;117277;-90
2022/05/31 05:40:18;;;;;;;2.67;2.53;;;14.00;43.20;;;;;;20674;6865;121415;-88
2022/05/31 05:42:44;;;;;;;2.97;2.50;;;14.00;43.30;;;;;;20703;6865;117866;-90
2022/05/31 05:45:11;;;;;;;3.90;3.17;;;13.90;43.20;;;;;;20478;6865;303411;-88
2022/05/31 05:47:37;;;;;;;2.90;2.77;;;14.20;43.30;;;;;;20696;6865;118390;-91
2022/05/31 05:50:02;;;;;;;3.60;2.67;;;14.30;43.20;;;;;;20692;6865;117401;-88
2022/05/31 05:52:29;;;;;;;3.00;2.70;;;14.20;43.30;;;;;;20670;6865;117581;-89
2022/05/31 05:54:56;;;;;;;3.13;2.93;;;14.10;43.50;;;;;;20698;6865;117399;-88
2022/05/31 05:57:22;;;;;;;3.22;2.95;;;14.10;43.60;;;;;;20479;6865;338110;-89
2022/05/31 05:59:47;;;;;;;3.25;3.05;;;14.40;43.90;;;;;;20694;6865;120452;-89
2022/05/31 06:02:13;;;;;;;3.05;2.85;;;14.60;43.80;;;;;;20473;6865;318279;-88
2022/05/31 06:04:39;;;;;;;3.30;3.10;;;14.90;42.70;;;;;;20236;6865;310669;-89
2022/05/31 06:07:20;;;;;;;3.10;2.80;;;15.30;41.80;;;;;;20435;6865;312261;-88
2022/05/31 06:09:49;;;;;;;2.47;2.37;;;15.60;42.00;;;;;;20311;6865;117561;-88
2022/05/31 06:12:16;;;;;;;3.10;2.90;;;15.60;41.80;;;;;;20372;6880;310776;-88
2022/05/31 06:14:42;;;;;;;3.00;2.70;;;15.70;40.80;;;;;;20495;6863;309753;-87
2022/05/31 06:17:11;;;;;;;2.53;2.43;;;16.00;40.70;;;;;;20755;6865;116907;-87
2022/05/31 06:19:36;;;;;;;4.73;2.93;;;16.00;40.90;;;;;;20686;6865;118094;-87
2022/05/31 06:22:04;;;;;;;3.08;2.87;;;16.00;40.90;;;;;;20479;6865;279351;-88
2022/05/31 06:24:29;;;;;;;3.40;3.10;;;16.00;40.90;;;;;;20393;6865;309647;-89
2022/05/31 06:26:56;;;;;;;2.90;2.70;;;16.80;40.90;;;;;;20454;6865;312382;-87
2022/05/31 06:29:21;;;;;;;3.17;2.90;;;16.80;40.90;;;;;;20621;6880;117534;-88
2022/05/31 06:31:48;;;;;;;2.90;2.70;;;17.40;41.50;;;;;;20679;6865;117854;-87
2022/05/31 06:34:13;;;;;;;3.37;3.07;;;17.40;41.50;;;;;;20636;6880;127725;-87
2022/05/31 06:36:41;;;;;;;2.70;2.50;;;17.70;41.60;;;;;;20696;6865;117850;-87
2022/05/31 06:39:07;;;;;;;3.10;2.90;;;18.00;41.80;;;;;;20487;6865;308837;-86
2022/05/31 06:41:33;;;;;;;2.47;2.37;;;19.50;39.70;;;;;;20680;6865;117811;-85
2022/05/31 06:43:59;;;;;;;3.20;2.90;;;19.50;39.60;;;;;;20701;6865;117316;-86
2022/05/31 06:46:25;;;;;;;2.87;2.60;;;20.00;39.50;;;;;;20661;6865;119540;-87
2022/05/31 06:48:51;;;;;;;4.10;3.03;;;19.90;39.30;;;;;;20503;6865;309462;-86
2022/05/31 06:57:02;;;;;;;3.10;2.90;;;21.70;36.00;;;;;;20747;6865;118576;-89
2022/05/31 06:59:27;;;;;;;4.33;2.80;;;21.70;36.00;;;;;;20683;6865;117423;-87
2022/05/31 07:01:53;;;;;;;4.93;2.70;;;21.80;36.60;;;;;;20689;6865;117279;-87
2022/05/31 07:04:18;;;;;;;2.95;2.70;;;21.90;36.80;;;;;;20446;6865;279886;-89
2022/05/31 07:06:44;;;;;;;4.40;2.60;;;22.30;35.10;;;;;;20693;6865;117596;-87
2022/05/31 07:09:10;;;;;;;3.12;2.67;;;22.60;35.50;;;;;;20481;6865;310439;-87
2022/05/31 07:11:35;;;;;;;2.53;2.42;;;23.00;33.70;;;;;;20685;6865;117456;-87
2022/05/31 07:14:01;;;;;;;2.90;2.60;;;23.10;34.10;;;;;;20477;6865;280471;-89
2022/05/31 07:16:26;;;;;;;2.80;2.50;;;23.30;33.10;;;;;;20457;6865;338808;-86
2022/05/31 07:18:52;;;;;;;2.67;2.53;;;23.50;32.50;;;;;;20695;6865;117452;-88
2022/05/31 07:21:17;;;;;;;4.45;2.40;;;23.30;33.20;;;;;;20483;6865;309113;-86
2022/05/31 07:23:43;;;;;;;2.80;2.67;;;23.10;32.50;;;;;;20557;6865;337232;-86
2022/05/31 07:26:08;;;;;;;2.70;2.50;;;23.10;33.40;;;;;;20539;6864;308267;-86
2022/05/31 07:28:34;;;;;;;2.87;2.50;;;23.30;32.90;;;;;;20740;6865;116438;-86
2022/05/31 07:31:01;;;;;;;2.75;2.55;;;23.10;33.70;;;;;;20756;6865;118189;-87
2022/05/31 07:33:27;;;;;;;6.03;2.33;;;22.80;34.10;;;;;;20753;6865;117429;-87
2022/05/31 07:35:52;;;;;;;2.65;2.45;;;22.60;34.50;;;;;;20546;6865;337261;-87
2022/05/31 07:38:19;;;;;;;2.60;2.40;;;22.70;33.60;;;;;;20744;6865;119220;-88
2022/05/31 07:40:43;;;;;;;2.67;2.53;;;22.70;34.40;;;;;;20743;6865;114497;-87
2022/05/31 07:43:10;;;;;;;2.67;2.30;;;22.50;34.60;;;;;;20544;6865;279703;-88
2022/05/31 07:45:34;;;;;;;2.63;2.43;;;22.70;33.20;;;;;;20546;6865;288857;-87
2022/05/31 07:48:01;;;;;;;3.30;2.20;;;23.00;32.60;;;;;;20552;6865;287409;-87
2022/05/31 07:50:26;;;;;;;2.20;2.10;;;23.30;33.10;;;;;;20518;6865;307744;-87
2022/05/31 07:52:51;;;;;;;2.10;1.97;;;23.60;32.50;;;;;;20764;6865;119583;-87
2022/05/31 07:55:17;;;;;;;2.27;2.07;;;23.70;33.20;;;;;;20535;6865;304833;-87
2022/05/31 08:00:28;;;;;;;3.03;2.00;;;23.80;32.80;;;;;;20455;6865;308329;-87
2022/05/31 08:02:53;;;;;;;2.10;2.00;;;23.80;31.40;;;;;;20697;6865;121602;-87
2022/05/31 08:05:19;;;;;;;1.77;1.67;;;23.80;32.40;;;;;;20691;6865;117664;-87
2022/05/31 08:07:45;;;;;;;2.10;1.90;;;23.60;33.70;;;;;;20690;6865;117316;-87
2022/05/31 08:10:11;;;;;;;1.77;1.67;;;23.60;33.60;;;;;;20671;6865;117285;-88
2022/05/31 08:12:36;;;;;;;1.77;1.67;;;23.60;33.90;;;;;;20703;6865;120635;-87
2022/05/31 08:15:04;;;;;;;1.80;1.70;;;23.60;33.70;;;;;;20701;6865;116806;-87
2022/05/31 08:17:27;;;;;;;1.90;1.80;;;23.50;34.40;;;;;;20675;6865;121474;-87
2022/05/31 08:19:54;;;;;;;1.85;1.75;;;23.50;34.10;;;;;;20695;6865;117450;-87
2022/05/31 08:22:19;;;;;;;2.20;2.00;;;23.40;34.00;;;;;;20676;6865;117592;-87
2022/05/31 08:24:45;;;;;;;2.40;1.70;;;23.50;34.80;;;;;;20694;6865;120520;-87
2022/05/31 08:27:10;;;;;;;2.13;1.70;;;23.50;34.00;;;;;;20680;6865;118562;-87
2022/05/31 08:29:36;;;;;;;2.00;1.80;;;23.60;34.30;;;;;;20477;6865;309312;-87
2022/05/31 08:32:02;;;;;;;1.83;1.70;;;24.00;34.20;;;;;;20672;6865;116671;-87
2022/05/31 08:34:27;;;;;;;2.13;1.93;;;24.20;34.10;;;;;;20667;6865;117773;-87
2022/05/31 08:36:53;;;;;;;3.17;1.70;;;24.30;34.00;;;;;;20673;6863;116346;-87
2022/05/31 08:39:18;;;;;;;1.67;1.57;;;24.40;33.70;;;;;;20687;6865;117818;-87
2022/05/31 08:41:44;;;;;;;1.83;1.73;;;24.50;33.80;;;;;;20690;6865;118015;-87
2022/05/31 08:44:33;;;;;;;1.90;1.80;;;24.50;33.60;;;;;;20454;6865;309300;-87
2022/05/31 08:47:01;;;;;;;2.17;1.97;;;24.80;31.20;;;;;;20684;6865;117816;-87
2022/05/31 08:52:52;;;;;;;1.87;1.77;;;25.10;33.00;;;;;;20673;6865;117827;-86
2022/05/31 08:58:07;;;;;;;1.93;1.80;;;25.50;31.60;;;;;;20482;6865;298544;-86
2022/05/31 09:00:35;;;;;;;1.77;1.60;;;25.50;31.50;;;;;;20397;6865;309776;-86
2022/05/31 09:03:01;;;;;;;1.93;1.60;;;25.90;30.00;;;;;;20467;6865;311657;-86
2022/05/31 09:05:30;;;;;;;2.10;1.80;;;26.20;29.30;;;;;;20445;6865;308854;-86
2022/05/31 09:07:57;;;;;;;1.80;1.70;;;26.40;29.30;;;;;;20455;6865;311983;-85
2022/05/31 09:10:27;;;;;;;2.37;1.60;;;26.60;30.60;;;;;;20087;6865;279172;-86
2022/05/31 09:12:57;;;;;;;1.60;1.50;;;27.10;29.50;;;;;;20468;6865;279590;-86
2022/05/31 09:15:36;;;;;;;1.70;1.60;;;27.10;29.50;;;;;;20674;6865;120192;-87
2022/05/31 09:18:38;;;;;;;1.60;1.50;;;27.00;29.90;;;;;;19615;7224;122258;-87
2022/05/31 09:20:59;;;;;;;1.80;1.70;;;26.80;30.60;;;;;;20256;6880;308325;-86
2022/05/31 09:23:31;;;;;;;1.60;1.50;;;27.00;30.00;;;;;;20392;6893;310363;-86
2022/05/31 09:25:57;;;;;;;4.03;1.90;;;27.30;30.00;;;;;;20611;6893;117692;-87
2022/05/31 09:28:39;;;;;;;2.70;1.80;;;27.30;30.10;;;;;;20577;6893;118064;-85
2022/05/31 09:31:08;;;;;;;1.90;1.80;;;27.10;30.00;;;;;;20397;6895;284591;-85
2022/05/31 09:33:33;;;;;;;1.92;1.58;;;27.20;29.40;;;;;;20103;6868;337482;-81
2022/05/31 09:36:20;;;;;;;2.47;1.70;;;27.70;29.40;;;;;;20386;6883;292374;-85
2022/05/31 09:39:05;;;;;;;2.83;2.53;;;27.70;29.40;;;;;;20641;6878;117396;-83
2022/05/31 09:41:35;;;;;;;2.67;1.60;;;27.80;28.50;;;;;;20402;6893;330584;-88
2022/05/31 09:44:20;;;;;;;2.73;1.73;;;27.80;28.50;;;;;;20643;6878;118650;-85
2022/05/31 09:46:46;;;;;;;2.37;1.80;;;27.80;29.00;;;;;;20404;6893;295249;-86
2022/05/31 09:49:31;;;;;;;2.73;1.80;;;27.90;28.80;;;;;;20627;6877;117741;-86
2022/05/31 09:51:57;;;;;;;1.87;1.70;;;27.80;29.20;;;;;;20587;6893;117670;-84
2022/05/31 09:57:13;;;;;;;3.23;1.80;;;27.50;29.40;;;;;;20617;6883;122529;-82
2022/05/31 09:59:37;;;;;;;2.83;1.80;;;27.30;29.70;;;;;;20427;6872;309557;-82
2022/05/31 10:02:13;;;;;;;2.80;1.70;;;27.20;28.90;;;;;;20424;6872;310596;-83
2022/05/31 10:04:38;;;;;;;2.25;2.03;;;27.30;29.20;;;;;;20376;6887;310668;-83
2022/05/31 10:07:04;;;;;;;1.90;1.80;;;27.40;28.70;;;;;;20624;6890;120427;-84
2022/05/31 10:09:37;;;;;;;2.63;1.63;;;27.20;28.80;;;;;;20463;6872;279583;-83
2022/05/31 10:12:13;;;;;;;1.70;1.60;;;27.50;29.20;;;;;;20385;6887;339920;-86
2022/05/31 10:14:38;;;;;;;1.63;1.53;;;27.50;29.20;;;;;;20655;6875;117584;-85
2022/05/31 10:17:37;;;;;;;1.80;1.70;;;27.60;29.40;;;;;;20423;6875;340881;-86
2022/05/31 10:20:22;;;;;;;2.23;1.50;;;27.80;28.60;;;;;;20420;6872;293656;-86
2022/05/31 10:22:51;;;;;;;2.60;1.70;;;28.20;28.30;;;;;;20667;6872;118432;-86
2022/05/31 10:25:21;;;;;;;1.30;1.20;;;28.20;28.90;;;;;;20629;6872;117398;-85
2022/05/31 10:27:46;;;;;;;1.70;1.33;;;28.20;28.90;;;;;;20665;6873;119428;-84
2022/05/31 10:30:18;;;;;;;2.60;1.60;;;28.10;28.80;;;;;;20666;6873;118616;-86
2022/05/31 10:32:47;;;;;;;3.43;1.50;;;28.10;28.10;;;;;;20459;6873;309287;-87
2022/05/31 10:35:29;;;;;;;1.95;1.60;;;28.30;28.00;;;;;;20397;6887;280655;-86
2022/05/31 10:38:05;;;;;;;1.50;1.40;;;28.70;27.20;;;;;;20608;6890;118224;-87
2022/05/31 10:40:50;;;;;;;1.67;1.57;;;28.80;27.90;;;;;;20648;6873;119596;-86
2022/05/31 10:43:36;;;;;;;2.12;1.50;;;28.70;28.30;;;;;;20416;6887;311611;-85
2022/05/31 10:46:01;;;;;;;1.97;1.40;;;28.90;26.90;;;;;;20421;6874;308502;-87
2022/05/31 10:48:27;;;;;;;2.42;1.25;;;29.30;26.50;;;;;;20491;6868;121732;-87
2022/05/31 10:51:13;;;;;;;1.95;1.50;;;29.30;26.00;;;;;;20454;6873;314319;-85
2022/05/31 10:53:55;;;;;;;3.33;1.60;;;29.30;25.40;;;;;;20673;6873;118604;-89
2022/05/31 10:56:20;;;;;;;3.27;1.37;;;29.20;26.40;;;;;;20423;6873;281131;-86
2022/05/31 10:58:59;;;;;;;2.22;1.25;;;29.30;25.60;;;;;;20370;6893;282188;-87
2022/05/31 11:01:51;;;;;;;1.80;1.50;;;29.50;23.60;;;;;;20416;6877;344398;-86
2022/05/31 11:04:22;;;;;;;2.40;1.43;;;29.70;25.40;;;;;;20568;6894;118509;-87
2022/05/31 11:06:51;;;;;;;2.13;1.43;;;29.60;25.30;;;;;;20608;6895;119741;-84
2022/05/31 11:12:11;;;;;;;1.50;1.40;;;29.20;25.40;;;;;;20473;6863;339238;-84
2022/05/31 11:14:50;;;;;;;1.77;1.57;;;29.40;24.90;;;;;;20432;6863;314492;-84
2022/05/31 11:17:46;;;;;;;1.53;1.37;;;29.40;25.00;;;;;;20630;6878;120244;-84
2022/05/31 11:20:24;;;;;;;3.07;1.60;;;29.20;25.60;;;;;;20636;6878;120279;-84
2022/05/31 11:23:16;;;;;;;1.40;1.30;;;28.90;26.10;;;;;;19981;6868;117767;-83
2022/05/31 11:25:42;;;;;;;1.70;1.60;;;28.70;26.40;;;;;;20664;6868;117663;-86
2022/05/31 11:28:17;;;;;;;3.23;1.60;;;28.40;26.20;;;;;;20695;6863;119249;-83
2022/05/31 11:31:06;;;;;;;1.90;1.50;;;28.20;26.50;;;;;;20463;6863;279194;-82
2022/05/31 11:33:51;;;;;;;1.67;1.30;;;28.30;25.50;;;;;;20422;6878;282155;-85
2022/05/31 11:36:54;;;;;;;1.58;1.40;;;28.60;25.90;;;;;;20400;6878;330149;-84
2022/05/31 11:39:47;;;;;;;1.97;1.07;;;28.90;26.20;;;;;;20641;6879;117698;-83
2022/05/31 11:42:37;;;;;;;1.57;1.47;;;28.90;26.00;;;;;;20611;6879;118395;-84
2022/05/31 11:45:25;;;;;;;1.40;1.30;;;28.70;26.20;;;;;;20646;6878;117678;-83
2022/05/31 11:48:22;;;;;;;1.70;1.60;;;28.40;26.40;;;;;;20425;6878;309619;-83
2022/05/31 11:50:57;;;;;;;1.37;1.27;;;28.50;25.70;;;;;;20387;6893;311058;-83
2022/05/31 11:53:22;;;;;;;1.35;1.27;;;28.80;24.30;;;;;;20381;6895;309372;-84
2022/05/31 11:55:49;;;;;;;2.08;1.50;;;29.00;23.20;;;;;;19609;6880;310962;-86
2022/05/31 11:58:16;;;;;;;1.53;1.20;;;29.00;23.20;;;;;;20658;6863;117349;-87
2022/05/31 12:00:54;;;;;;;1.20;1.10;;;28.80;23.90;;;;;;20620;6878;117663;-84
2022/05/31 12:03:22;;;;;;;1.70;1.42;;;28.40;24.10;;;;;;20407;6878;331349;-86
2022/05/31 12:05:48;;;;;;;2.10;1.37;;;28.40;24.10;;;;;;20564;6878;117791;-84
2022/05/31 12:08:17;;;;;;;2.47;1.23;;;28.20;24.30;;;;;;20616;6878;122614;-84
2022/05/31 12:10:53;;;;;;;2.30;1.40;;;28.00;25.10;;;;;;20394;6876;310342;-86
2022/05/31 12:13:18;;;;;;;1.50;1.40;;;28.00;22.90;;;;;;20510;6863;308519;-83
2022/05/31 12:15:44;;;;;;;1.60;1.50;;;28.10;24.50;;;;;;20654;6878;117878;-83
2022/05/31 12:18:24;;;;;;;1.60;1.50;;;28.10;25.90;;;;;;20447;6878;311564;-83
2022/05/31 12:21:23;;;;;;;1.90;1.17;;;28.10;25.90;;;;;;20642;6878;117395;-89
2022/05/31 12:24:21;;;;;;;4.40;1.50;;;28.10;26.20;;;;;;19812;6878;119090;-88
2022/05/31 12:26:45;;;;;;;1.50;1.40;;;27.80;26.20;;;;;;20650;6878;119156;-87
2022/05/31 12:29:30;;;;;;;1.40;1.40;;;27.50;26.60;;;;;;20642;6878;117734;-89
2022/05/31 12:32:32;;;;;;;1.45;1.30;;;27.40;26.70;;;;;;20412;6891;311858;-90
2022/05/31 12:34:58;;;;;;;1.37;1.30;;;27.50;26.30;;;;;;20632;6891;117376;-89
2022/05/31 12:37:23;;;;;;;1.50;1.40;;;27.50;26.40;;;;;;20374;6891;309966;-89
2022/05/31 12:39:50;;;;;;;2.50;1.40;;;27.60;25.50;;;;;;20410;6883;339273;-89
2022/05/31 12:42:15;;;;;;;1.53;1.43;;;27.90;26.60;;;;;;20648;6868;122049;-89
2022/05/31 12:44:40;;;;;;;3.87;1.27;;;27.90;26.20;;;;;;20438;6868;280020;-85
2022/05/31 12:47:32;;;;;;;1.70;1.60;;;28.00;25.10;;;;;;20463;6868;309316;-85
2022/05/31 12:50:02;;;;;;;1.60;1.30;;;28.10;26.10;;;;;;20678;6868;117694;-84
2022/05/31 12:55:04;;;;;;;1.70;1.60;;;27.60;26.50;;;;;;20458;6868;338960;-87
2022/05/31 13:00:37;;;;;;;1.70;1.30;;;27.40;27.10;;;;;;20656;6868;120047;-87
2022/05/31 13:03:05;;;;;;;1.33;1.33;;;27.30;27.10;;;;;;20669;6868;117254;-86
2022/05/31 13:05:34;;;;;;;2.53;1.47;;;27.20;27.60;;;;;;20598;6868;117890;-86
2022/05/31 13:08:19;;;;;;;1.67;1.53;;;27.00;27.70;;;;;;20445;6868;301062;-86
2022/05/31 13:21:55;;;;;;;1.60;1.23;;;27.30;26.50;;;;;;20448;6868;309233;-85
2022/05/31 13:24:21;;;;;;;1.33;1.23;;;27.50;25.50;;;;;;20652;6867;118103;-84
2022/05/31 13:26:47;;;;;;;1.50;1.40;;;27.30;25.90;;;;;;20450;6868;279579;-85